createdAt,value
2023-04-14T00:00:06.463Z,75.98
2023-04-14T00:02:43.864Z,76.07
2023-04-14T00:05:12.377Z,76.44
2023-04-14T00:07:40.896Z,76.16
2023-04-14T00:10:09.959Z,76.56
2023-04-14T00:12:38.580Z,76.29
2023-04-14T00:15:07.105Z,76.20
2023-04-14T00:17:37.435Z,75.48
2023-04-14T00:20:06.596Z,75.10
2023-04-14T00:22:34.767Z,74.92
2023-04-14T00:25:04.122Z,74.52
2023-04-14T00:27:32.557Z,74.91
2023-04-14T00:30:00.516Z,75.00
2023-04-14T00:32:29.929Z,73.82
2023-04-14T00:35:00.251Z,73.60
2023-04-14T00:37:31.425Z,73.77
2023-04-14T00:40:01.053Z,73.61
2023-04-14T00:44:53.029Z,75.76
2023-04-14T00:47:22.277Z,74.00
2023-04-14T00:49:50.407Z,74.07
2023-04-14T00:52:18.091Z,73.63
2023-04-14T00:54:44.843Z,74.06
2023-04-14T00:57:11.809Z,74.13
2023-04-14T00:59:41.977Z,74.33
2023-04-14T01:02:09.154Z,73.47
2023-04-14T01:04:51.981Z,73.45
2023-04-14T01:07:21.741Z,73.68
2023-04-14T01:09:48.602Z,73.84
2023-04-14T01:12:39.922Z,73.64
2023-04-14T01:15:29.135Z,73.86
2023-04-14T01:18:08.185Z,73.63
2023-04-14T01:20:43.519Z,74.20
2023-04-14T01:23:18.134Z,74.40
2023-04-14T01:26:02.319Z,74.77
2023-04-14T01:28:58.298Z,75.35
2023-04-14T01:31:43.949Z,75.55
2023-04-14T01:34:26.787Z,76.50
2023-04-14T01:36:58.016Z,76.73
2023-04-14T01:39:34.276Z,77.57
2023-04-14T01:42:05.384Z,77.53
2023-04-14T01:44:32.374Z,78.20
2023-04-14T01:47:02.863Z,78.33
2023-04-14T01:49:31.162Z,78.73
2023-04-14T01:52:00.437Z,78.29
2023-04-14T01:54:28.957Z,78.34
2023-04-14T01:56:56.476Z,77.90
2023-04-14T01:59:23.489Z,77.50
2023-04-14T02:01:50.470Z,76.97
2023-04-14T02:04:22.314Z,76.39
2023-04-14T02:06:50.019Z,76.27
2023-04-14T02:09:17.083Z,75.76
2023-04-14T02:11:44.297Z,75.80
2023-04-14T02:14:11.040Z,75.41
2023-04-14T02:16:38.364Z,75.21
2023-04-14T02:19:05.551Z,74.77
2023-04-14T02:21:37.101Z,74.93
2023-04-14T02:24:04.488Z,74.75
2023-04-14T02:26:32.067Z,74.65
2023-04-14T02:29:02.788Z,74.84
2023-04-14T02:31:29.793Z,74.68
2023-04-14T02:33:56.478Z,74.84
2023-04-14T02:36:32.520Z,75.17
2023-04-14T02:39:09.882Z,75.18
2023-04-14T02:41:37.699Z,74.98
2023-04-14T02:44:17.069Z,75.39
2023-04-14T02:47:03.556Z,75.92
2023-04-14T02:49:39.717Z,75.77
2023-04-14T02:52:06.850Z,75.91
2023-04-14T02:54:35.991Z,76.34
2023-04-14T02:57:03.582Z,76.50
2023-04-14T02:59:31.747Z,76.89
2023-04-14T03:02:05.468Z,77.17
2023-04-14T03:04:34.850Z,77.30
2023-04-14T03:07:07.402Z,77.63
2023-04-14T03:09:34.293Z,78.00
2023-04-14T03:12:03.301Z,77.59
2023-04-14T03:14:31.227Z,77.73
2023-04-14T03:16:57.920Z,78.19
2023-04-14T03:19:24.989Z,78.18
2023-04-14T03:21:54.727Z,78.01
2023-04-14T03:24:24.045Z,77.95
2023-04-14T03:26:55.992Z,78.72
2023-04-14T03:29:27.043Z,78.14
2023-04-14T03:31:54.706Z,78.07
2023-04-14T03:34:22.988Z,78.80
2023-04-14T03:36:50.842Z,78.85
2023-04-14T03:39:18.950Z,79.01
2023-04-14T03:41:48.125Z,79.17
2023-04-14T03:44:15.951Z,78.93
2023-04-14T03:46:48.603Z,79.28
2023-04-14T03:49:16.712Z,79.51
2023-04-14T03:51:44.271Z,79.58
2023-04-14T03:54:11.301Z,79.58
2023-04-14T03:56:40.665Z,79.69
2023-04-14T03:59:11.966Z,79.86
2023-04-14T04:01:39.675Z,79.92
2023-04-14T04:04:07.752Z,79.63
2023-04-14T04:06:36.505Z,79.67
2023-04-14T04:09:03.394Z,79.88
2023-04-14T04:11:30.393Z,80.22
2023-04-14T04:13:58.881Z,80.05
2023-04-14T04:16:26.115Z,79.79
2023-04-14T04:18:52.705Z,80.13
2023-04-14T04:21:23.673Z,80.13
2023-04-14T04:23:53.772Z,80.52
2023-04-14T04:26:23.223Z,80.31
2023-04-14T04:28:57.280Z,80.37
2023-04-14T04:31:25.190Z,80.42
2023-04-14T04:33:51.984Z,80.43
2023-04-14T04:36:27.754Z,80.94
2023-04-14T04:38:56.395Z,80.84
2023-04-14T04:41:28.556Z,80.85
2023-04-14T04:43:56.267Z,80.79
2023-04-14T04:46:43.359Z,80.89
2023-04-14T04:49:12.209Z,80.68
2023-04-14T04:51:38.873Z,80.43
2023-04-14T04:54:06.017Z,80.69
2023-04-14T04:56:33.333Z,79.93
2023-04-14T04:59:00.269Z,79.82
2023-04-14T05:01:27.464Z,80.24
2023-04-14T05:03:54.810Z,79.75
2023-04-14T05:06:21.774Z,80.12
2023-04-14T05:08:53.558Z,80.34
2023-04-14T05:11:21.247Z,81.10
2023-04-14T05:13:47.859Z,81.18
2023-04-14T05:16:16.599Z,80.62
2023-04-14T05:18:45.983Z,80.24
2023-04-14T05:21:13.770Z,80.74
2023-04-14T05:23:43.016Z,80.36
2023-04-14T05:26:39.064Z,80.72
2023-04-14T05:29:02.958Z,80.54
2023-04-14T05:31:31.239Z,80.10
2023-04-14T05:33:57.874Z,80.42
2023-04-14T05:36:24.480Z,80.34
2023-04-14T05:38:51.377Z,80.22
2023-04-14T05:41:20.649Z,80.54
2023-04-14T05:43:47.411Z,80.24
2023-04-14T05:46:13.930Z,80.40
2023-04-14T05:48:41.104Z,80.36
2023-04-14T05:51:08.395Z,80.32
2023-04-14T05:53:34.976Z,80.00
2023-04-14T05:56:01.685Z,80.13
2023-04-14T05:58:28.767Z,80.16
2023-04-14T06:00:55.525Z,79.88
2023-04-14T06:03:31.137Z,79.50
2023-04-14T06:05:57.850Z,79.48
2023-04-14T06:08:24.906Z,79.48
2023-04-14T06:10:51.834Z,79.18
2023-04-14T06:13:22.382Z,79.60
2023-04-14T06:15:50.347Z,79.26
2023-04-14T06:18:22.344Z,79.67
2023-04-14T06:20:49.737Z,79.77
2023-04-14T06:23:16.439Z,79.56
2023-04-14T06:25:48.607Z,79.56
2023-04-14T06:28:15.540Z,78.94
2023-04-14T06:30:42.076Z,79.36
2023-04-14T06:33:08.861Z,79.71
2023-04-14T06:35:36.218Z,79.59
2023-04-14T06:38:02.793Z,79.28
2023-04-14T06:40:29.513Z,79.87
2023-04-14T06:42:56.626Z,79.58
2023-04-14T06:45:23.810Z,79.47
2023-04-14T06:47:50.933Z,79.43
2023-04-14T06:50:19.424Z,79.15
2023-04-14T06:52:48.720Z,79.44
2023-04-14T06:55:15.715Z,79.40
2023-04-14T06:57:46.270Z,79.95
2023-04-14T07:00:13.151Z,79.91
2023-04-14T07:02:41.423Z,79.50
2023-04-14T07:05:08.211Z,80.05
2023-04-14T07:07:36.753Z,79.72
2023-04-14T07:10:03.600Z,80.12
2023-04-14T07:12:30.716Z,79.47
2023-04-14T07:14:57.211Z,79.83
2023-04-14T07:17:23.856Z,79.42
2023-04-14T07:19:51.208Z,79.00
2023-04-14T07:22:17.875Z,78.74
2023-04-14T07:24:45.263Z,79.04
2023-04-14T07:27:14.512Z,79.05
2023-04-14T07:29:41.570Z,79.10
2023-04-14T07:32:12.632Z,79.22
2023-04-14T07:34:42.985Z,79.10
2023-04-14T07:37:10.474Z,79.03
2023-04-14T07:39:37.744Z,79.49
2023-04-14T07:42:04.964Z,78.91
2023-04-14T07:44:37.285Z,78.49
2023-04-14T07:47:03.845Z,79.00
2023-04-14T07:49:31.142Z,79.74
2023-04-14T07:51:57.820Z,78.35
2023-04-14T07:54:24.415Z,77.31
2023-04-14T07:56:51.008Z,77.79
2023-04-14T07:59:17.518Z,78.60
2023-04-14T08:01:44.392Z,77.52
2023-04-14T08:04:11.887Z,78.47
2023-04-14T08:06:43.552Z,78.74
2023-04-14T08:09:11.622Z,77.69
2023-04-14T08:11:38.374Z,76.71
2023-04-14T08:14:05.090Z,76.83
2023-04-14T08:16:35.859Z,77.09
2023-04-14T08:19:05.565Z,77.11
2023-04-14T08:21:32.786Z,77.72
2023-04-14T08:23:59.482Z,78.39
2023-04-14T08:26:27.970Z,78.01
2023-04-14T08:28:55.083Z,77.06
2023-04-14T08:31:22.388Z,77.92
2023-04-14T08:33:49.928Z,78.28
2023-04-14T08:36:16.534Z,77.39
2023-04-14T08:38:45.921Z,76.86
2023-04-14T08:41:13.123Z,76.80
2023-04-14T08:43:39.854Z,77.06
2023-04-14T08:46:10.952Z,77.64
2023-04-14T08:48:39.376Z,76.60
2023-04-14T08:51:21.793Z,76.77
2023-04-14T08:53:52.105Z,76.79
2023-04-14T08:56:18.711Z,76.04
2023-04-14T08:58:46.695Z,76.84
2023-04-14T09:01:14.764Z,77.36
2023-04-14T09:03:43.378Z,77.22
2023-04-14T09:06:10.274Z,77.46
2023-04-14T09:08:38.558Z,76.82
2023-04-14T09:11:06.228Z,77.17
2023-04-14T09:13:33.032Z,77.23
2023-04-14T09:16:01.084Z,76.82
2023-04-14T09:18:28.256Z,76.79
2023-04-14T09:21:29.366Z,76.71
2023-04-14T09:23:46.634Z,76.26
2023-04-14T09:26:13.407Z,75.65
2023-04-14T09:28:40.720Z,74.42
2023-04-14T09:31:10.814Z,75.22
2023-04-14T09:33:49.563Z,75.36
2023-04-14T09:36:22.798Z,76.06
2023-04-14T09:38:50.614Z,74.11
2023-04-14T09:41:19.283Z,73.95
2023-04-14T09:43:46.489Z,72.97
2023-04-14T09:46:14.840Z,72.82
2023-04-14T09:48:53.339Z,73.17
2023-04-14T09:51:27.143Z,73.51
2023-04-14T09:53:53.904Z,73.01
2023-04-14T09:56:27.751Z,73.07
2023-04-14T09:59:01.318Z,73.74
2023-04-14T10:01:33.336Z,73.92
2023-04-14T10:04:01.833Z,73.47
2023-04-14T10:06:33.188Z,72.63
2023-04-14T10:09:00.821Z,72.65
2023-04-14T10:11:29.592Z,72.00
2023-04-14T10:14:03.358Z,71.93
2023-04-14T10:16:31.146Z,71.37
2023-04-14T10:18:58.504Z,71.66
2023-04-14T10:21:27.626Z,73.63
2023-04-14T10:23:57.492Z,73.34
2023-04-14T10:26:24.788Z,72.50
2023-04-14T10:28:53.958Z,72.66
2023-04-14T10:31:25.944Z,73.07
2023-04-14T10:33:53.519Z,72.37
2023-04-14T10:36:28.276Z,72.27
2023-04-14T10:39:02.660Z,72.21
2023-04-14T10:41:42.223Z,71.81
2023-04-14T10:44:32.059Z,71.38
2023-04-14T10:47:01.373Z,71.92
2023-04-14T10:49:36.604Z,72.41
2023-04-14T10:52:06.105Z,71.71
2023-04-14T10:54:54.974Z,71.27
2023-04-14T10:57:22.850Z,71.96
2023-04-14T10:59:59.496Z,72.60
2023-04-14T11:02:31.448Z,71.42
2023-04-14T11:05:05.473Z,71.80
2023-04-14T11:07:58.794Z,71.80
2023-04-14T11:10:30.655Z,71.44
2023-04-14T11:13:03.114Z,71.11
2023-04-14T11:15:56.626Z,70.91
2023-04-14T11:18:29.341Z,71.42
2023-04-14T11:21:10.104Z,70.60
2023-04-14T11:23:40.482Z,71.23
2023-04-14T11:26:11.557Z,71.19
2023-04-14T11:28:45.569Z,70.52
2023-04-14T11:31:14.658Z,70.44
2023-04-14T11:33:41.317Z,69.93
2023-04-14T11:36:09.137Z,69.97
2023-04-14T11:38:39.777Z,70.07
2023-04-14T11:41:06.710Z,70.38
2023-04-14T11:43:38.111Z,70.03
2023-04-14T11:46:04.968Z,69.22
2023-04-14T11:48:33.178Z,68.89
2023-04-14T11:51:02.772Z,69.53
2023-04-14T11:53:29.752Z,69.38
2023-04-14T11:56:00.168Z,68.85
2023-04-14T11:58:28.159Z,67.73
2023-04-14T12:00:56.930Z,66.67
2023-04-14T12:03:36.170Z,67.68
2023-04-14T12:06:03.354Z,67.12
2023-04-14T12:08:31.582Z,66.19
2023-04-14T12:11:12.881Z,65.60
2023-04-14T12:13:43.309Z,65.66
2023-04-14T12:16:11.063Z,65.46
2023-04-14T12:18:40.072Z,65.51
2023-04-14T12:21:09.769Z,65.25
2023-04-14T12:23:41.749Z,65.29
2023-04-14T12:26:11.298Z,65.38
2023-04-14T12:28:41.151Z,66.00
2023-04-14T12:31:08.787Z,66.52
2023-04-14T12:33:35.805Z,66.77
2023-04-14T12:36:04.215Z,66.84
2023-04-14T12:38:30.805Z,66.81
2023-04-14T12:40:57.422Z,66.78
2023-04-14T12:43:42.224Z,66.44
2023-04-14T12:46:10.162Z,66.50
2023-04-14T12:48:45.309Z,66.70
2023-04-14T12:51:17.135Z,66.60
2023-04-14T12:53:45.025Z,66.65
2023-04-14T12:56:11.569Z,66.34
2023-04-14T12:58:42.266Z,66.32
2023-04-14T13:02:36.389Z,67.00
2023-04-14T13:05:05.250Z,65.87
2023-04-14T13:07:33.515Z,65.28
2023-04-14T13:10:02.781Z,65.11
2023-04-14T13:12:31.817Z,64.99
2023-04-14T13:15:00.468Z,64.32
2023-04-14T13:17:29.372Z,64.56
2023-04-14T13:19:57.508Z,64.55
2023-04-14T13:22:26.665Z,64.65
2023-04-14T13:24:58.086Z,64.51
2023-04-14T13:27:26.101Z,64.77
2023-04-14T13:29:56.060Z,64.73
2023-04-14T13:32:24.080Z,64.72
2023-04-14T13:34:52.797Z,64.84
2023-04-14T13:37:22.066Z,64.89
2023-04-14T13:39:50.127Z,65.19
2023-04-14T13:42:18.568Z,65.35
2023-04-14T13:44:47.652Z,65.06
2023-04-14T13:47:15.721Z,64.82
2023-04-14T13:49:44.670Z,64.77
2023-04-14T13:52:12.575Z,64.40
2023-04-14T13:54:41.093Z,64.70
2023-04-14T13:57:09.328Z,63.74
2023-04-14T13:59:38.440Z,63.80
2023-04-14T14:02:08.347Z,64.11
2023-04-14T14:04:38.270Z,63.30
2023-04-14T14:07:06.863Z,63.44
2023-04-14T14:09:35.064Z,63.73
2023-04-14T14:12:05.407Z,63.75
2023-04-14T14:14:34.667Z,63.63
2023-04-14T14:17:02.582Z,63.73
2023-04-14T14:19:32.012Z,63.72
2023-04-14T14:21:59.876Z,63.78
2023-04-14T14:24:28.882Z,64.18
2023-04-14T14:26:56.979Z,63.80
2023-04-14T14:29:24.985Z,64.15
2023-04-14T14:31:52.996Z,64.77
2023-04-14T14:34:21.246Z,64.40
2023-04-14T14:36:49.568Z,65.24
2023-04-14T14:39:21.636Z,64.93
2023-04-14T14:41:49.590Z,65.48
2023-04-14T14:44:18.003Z,65.60
2023-04-14T14:46:47.348Z,65.18
2023-04-14T14:49:15.627Z,65.30
2023-04-14T14:51:43.863Z,65.39
2023-04-14T14:54:12.052Z,65.44
2023-04-14T14:56:41.369Z,65.68
2023-04-14T14:59:09.420Z,65.80
2023-04-14T15:01:37.581Z,65.69
2023-04-14T15:04:06.785Z,65.92
2023-04-14T15:06:36.001Z,66.12
2023-04-14T15:09:05.495Z,65.61
2023-04-14T15:11:38.801Z,66.14
2023-04-14T15:14:06.946Z,66.37
2023-04-14T15:16:35.114Z,66.52
2023-04-14T15:19:05.028Z,66.73
2023-04-14T15:21:33.251Z,66.78
2023-04-14T15:24:01.926Z,67.20
2023-04-14T15:26:32.469Z,67.25
2023-04-14T15:29:02.654Z,66.96
2023-04-14T15:31:31.183Z,66.75
2023-04-14T15:34:00.488Z,67.10
2023-04-14T15:36:28.992Z,67.25
2023-04-14T15:38:57.160Z,66.92
2023-04-14T15:41:26.601Z,67.41
2023-04-14T15:43:54.523Z,67.10
2023-04-14T15:46:23.001Z,66.91
2023-04-14T15:48:51.301Z,67.29
2023-04-14T15:51:20.150Z,67.43
2023-04-14T15:53:48.114Z,67.67
2023-04-14T15:56:16.050Z,68.07
2023-04-14T15:58:45.659Z,68.22
2023-04-14T16:01:13.826Z,68.11
2023-04-14T16:03:43.438Z,68.18
2023-04-14T16:06:12.823Z,68.61
2023-04-14T16:08:41.501Z,68.51
2023-04-14T16:11:16.744Z,68.39
2023-04-14T16:13:56.947Z,68.41
2023-04-14T16:16:26.202Z,68.59
2023-04-14T16:18:55.540Z,68.71
2023-04-14T16:21:24.502Z,69.18
2023-04-14T16:23:55.401Z,68.89
2023-04-14T16:26:25.542Z,68.50
2023-04-14T16:29:03.426Z,68.34
2023-04-14T16:31:34.018Z,68.77
2023-04-14T16:34:05.260Z,68.83
2023-04-14T16:36:38.649Z,69.70
2023-04-14T16:39:16.607Z,69.43
2023-04-14T16:41:46.650Z,69.30
2023-04-14T16:44:15.209Z,69.25
2023-04-14T16:46:43.743Z,69.14
2023-04-14T16:49:13.944Z,69.05
2023-04-14T16:51:47.506Z,69.85
2023-04-14T16:54:17.255Z,70.17
2023-04-14T16:56:45.939Z,70.12
2023-04-14T16:59:15.563Z,69.74
2023-04-14T17:01:44.932Z,69.65
2023-04-14T17:04:14.320Z,70.22
2023-04-14T17:06:43.719Z,70.62
2023-04-14T17:09:12.159Z,70.29
2023-04-14T17:11:40.206Z,70.06
2023-04-14T17:14:09.186Z,70.18
2023-04-14T17:16:38.234Z,69.82
2023-04-14T17:19:06.248Z,69.61
2023-04-14T17:21:38.638Z,69.46
2023-04-14T17:24:11.738Z,69.00
2023-04-14T17:26:39.859Z,68.97
2023-04-14T17:29:07.775Z,69.29
2023-04-14T17:31:37.452Z,69.16
2023-04-14T17:34:10.710Z,69.39
2023-04-14T17:36:39.233Z,69.44
2023-04-14T17:39:10.440Z,69.38
2023-04-14T17:41:39.563Z,69.23
2023-04-14T17:44:08.672Z,69.84
2023-04-14T17:46:37.444Z,69.84
2023-04-14T17:49:05.825Z,69.25
2023-04-14T17:51:35.328Z,68.99
2023-04-14T17:54:06.043Z,69.13
2023-04-14T17:56:36.993Z,69.63
2023-04-14T17:59:06.843Z,69.33
2023-04-14T18:01:35.607Z,69.17
2023-04-14T18:04:04.597Z,69.13
2023-04-14T18:06:34.063Z,69.19
2023-04-14T18:09:05.629Z,69.37
2023-04-14T18:11:35.355Z,69.17
2023-04-14T18:14:03.866Z,69.83
2023-04-14T18:16:33.853Z,70.14
2023-04-14T18:19:02.207Z,69.98
2023-04-14T18:21:32.666Z,69.89
2023-04-14T18:26:39.704Z,70.20
2023-04-14T18:29:08.198Z,70.11
2023-04-14T18:31:38.089Z,70.16
2023-04-14T18:34:23.119Z,70.61
2023-04-14T18:36:51.412Z,70.69
2023-04-14T18:39:19.429Z,70.51
2023-04-14T18:41:49.304Z,70.94
2023-04-14T18:44:18.378Z,71.05
2023-04-14T18:46:46.449Z,71.55
2023-04-14T18:49:14.554Z,71.91
2023-04-14T18:51:43.393Z,71.41
2023-04-14T18:54:13.256Z,71.93
2023-04-14T18:56:45.027Z,72.02
2023-04-14T18:59:13.127Z,72.61
2023-04-14T19:01:41.448Z,72.47
2023-04-14T19:04:10.433Z,72.41
2023-04-14T19:06:40.836Z,72.21
2023-04-14T19:09:08.964Z,72.04
2023-04-14T19:11:42.406Z,72.18
2023-04-14T19:14:13.118Z,72.41
2023-04-14T19:16:41.161Z,71.99
2023-04-14T19:19:09.206Z,71.99
2023-04-14T19:21:40.394Z,72.38
2023-04-14T19:24:10.224Z,71.85
2023-04-14T19:26:40.965Z,72.36
2023-04-14T19:29:11.145Z,72.07
2023-04-14T19:31:40.916Z,71.65
2023-04-14T19:34:09.508Z,71.39
2023-04-14T19:36:40.320Z,71.18
2023-04-14T19:39:08.487Z,71.20
2023-04-14T19:41:36.894Z,71.77
2023-04-14T19:44:08.526Z,71.39
2023-04-14T19:46:37.506Z,70.94
2023-04-14T19:49:07.468Z,71.17
2023-04-14T19:51:36.680Z,71.24
2023-04-14T19:54:09.548Z,70.80
2023-04-14T19:56:38.315Z,70.84
2023-04-14T19:59:06.262Z,71.01
2023-04-14T20:01:37.113Z,71.48
2023-04-14T20:04:12.106Z,71.16
2023-04-14T20:06:41.402Z,71.15
2023-04-14T20:09:13.309Z,71.20
2023-04-14T20:11:41.718Z,71.87
2023-04-14T20:14:10.780Z,71.64
2023-04-14T20:16:40.709Z,71.39
2023-04-14T20:19:12.830Z,71.10
2023-04-14T20:21:41.113Z,71.49
2023-04-14T20:24:09.243Z,71.59
2023-04-14T20:26:42.825Z,71.41
2023-04-14T20:29:12.348Z,71.20
2023-04-14T20:31:42.776Z,71.71
2023-04-14T20:34:11.673Z,71.71
2023-04-14T20:36:40.630Z,71.26
2023-04-14T20:39:09.139Z,71.19
2023-04-14T20:41:38.353Z,71.23
2023-04-14T20:44:07.550Z,71.24
2023-04-14T20:46:35.810Z,70.82
2023-04-14T20:49:04.323Z,70.63
2023-04-14T20:51:33.903Z,69.93
2023-04-14T20:54:02.037Z,69.65
2023-04-14T20:56:35.251Z,69.59
2023-04-14T20:59:03.780Z,69.43
2023-04-14T21:01:32.669Z,69.39
2023-04-14T21:04:00.754Z,69.31
2023-04-14T21:06:31.750Z,68.45
2023-04-14T21:09:01.391Z,67.44
2023-04-14T21:11:29.818Z,66.54
2023-04-14T21:15:30.285Z,66.40
2023-04-14T21:16:46.710Z,65.87
2023-04-14T21:19:15.191Z,65.23
2023-04-14T21:21:45.447Z,65.69
2023-04-14T21:24:14.069Z,65.30
2023-04-14T21:26:42.476Z,64.70
2023-04-14T21:29:14.422Z,64.68
2023-04-14T21:31:42.822Z,64.80
2023-04-14T21:34:10.832Z,64.29
2023-04-14T21:36:39.437Z,64.17
2023-04-14T21:39:07.510Z,64.79
2023-04-14T21:41:35.959Z,64.42
2023-04-14T21:44:04.156Z,64.26
2023-04-14T21:46:35.693Z,64.72
2023-04-14T21:49:04.579Z,64.52
2023-04-14T21:51:32.852Z,64.57
2023-04-14T21:54:01.856Z,64.75
2023-04-14T21:56:31.491Z,64.36
2023-04-14T21:59:01.136Z,64.34
2023-04-14T22:01:31.880Z,64.81
2023-04-14T22:04:01.088Z,64.83
2023-04-14T22:06:29.738Z,64.38
2023-04-14T22:09:03.460Z,64.76
2023-04-14T22:11:32.419Z,64.95
2023-04-14T22:14:02.861Z,64.81
2023-04-14T22:16:37.808Z,64.90
2023-04-14T22:19:09.314Z,65.11
2023-04-14T22:21:38.026Z,64.70
2023-04-14T22:24:06.316Z,64.57
2023-04-14T22:26:34.399Z,64.84
2023-04-14T22:29:02.757Z,64.71
2023-04-14T22:31:31.320Z,64.25
2023-04-14T22:33:59.383Z,64.52
2023-04-14T22:36:29.149Z,64.07
2023-04-14T22:38:57.135Z,63.26
2023-04-14T22:41:25.146Z,63.41
2023-04-14T22:43:53.532Z,63.97
2023-04-14T22:46:25.069Z,63.67
2023-04-14T22:48:53.057Z,63.63
2023-04-14T22:51:21.590Z,63.92
2023-04-14T22:53:54.126Z,63.64
2023-04-14T22:56:23.278Z,63.44
2023-04-14T22:58:51.281Z,63.73
2023-04-14T23:01:24.560Z,64.11
2023-04-14T23:03:55.924Z,63.83
2023-04-14T23:06:24.265Z,63.42
2023-04-14T23:08:54.338Z,63.54
2023-04-14T23:11:23.539Z,63.92
2023-04-14T23:13:52.583Z,63.52
2023-04-14T23:16:22.423Z,63.29
2023-04-14T23:18:53.047Z,63.77
2023-04-14T23:21:24.813Z,63.67
2023-04-14T23:23:52.986Z,63.36
2023-04-14T23:26:27.589Z,63.87
2023-04-14T23:28:57.289Z,63.99
2023-04-14T23:31:28.252Z,63.69
2023-04-14T23:33:59.206Z,64.01
2023-04-14T23:36:28.783Z,64.58
2023-04-14T23:38:57.278Z,64.31
2023-04-14T23:41:26.695Z,64.11
2023-04-14T23:43:55.382Z,64.72
2023-04-14T23:46:23.834Z,65.23
2023-04-14T23:48:53.835Z,64.96
2023-04-14T23:51:24.003Z,65.20
2023-04-14T23:53:52.122Z,65.57
2023-04-14T23:56:24.256Z,66.21
2023-04-14T23:58:52.197Z,66.25
